Time;durP1;ratioP1;P1;durP2;ratioP2;P2;SDS_P1;SDS_P2;PMS_P1;PMS_P2;Temp;Humidity;BMP_temperature;BMP_pressure;BME280_temperature;BME280_humidity;BME280_pressure;Samples;Min_cycle;Max_cycle;Signal;HPM_P1;HPM_P2
2023/03/05 00:00:50;;;;;;;11.67;2.50;;;;;;;-145.18;100.00;60484.78;5016795;28;20479;-65
2023/03/05 00:03:16;;;;;;;10.37;2.67;;;;;;;-145.18;100.00;60484.78;5026656;28;20092;-65
2023/03/05 00:05:41;;;;;;;10.97;3.03;;;;;;;-145.18;100.00;60484.78;5029455;28;20112;-64
2023/03/05 00:08:06;;;;;;;12.07;2.93;;;;;;;-145.18;100.00;60484.78;5030394;28;20417;-64
2023/03/05 00:10:32;;;;;;;11.93;3.00;;;;;;;-145.18;100.00;60484.78;5028192;28;20033;-64
2023/03/05 00:12:57;;;;;;;11.63;3.83;;;;;;;-145.18;100.00;60484.78;5028287;28;20385;-66
2023/03/05 00:15:23;;;;;;;13.37;3.50;;;;;;;-145.18;100.00;60484.78;5033926;28;20100;-65
2023/03/05 00:17:48;;;;;;;13.27;3.17;;;;;;;-145.18;100.00;60484.78;5031026;28;20032;-65
2023/03/05 00:20:13;;;;;;;11.47;2.90;;;;;;;-145.18;100.00;60484.78;5032845;28;20774;-65
2023/03/05 00:22:39;;;;;;;14.63;2.77;;;;;;;-145.18;100.00;60484.78;5033878;28;20022;-65
2023/03/05 00:25:05;;;;;;;11.37;2.93;;;;;;;-145.18;100.00;60484.78;5025381;28;20397;-65
2023/03/05 00:27:30;;;;;;;17.83;4.73;;;;;;;-145.18;100.00;60484.78;5028509;28;20033;-65
2023/03/05 00:29:56;;;;;;;8.73;2.63;;;;;;;-145.18;100.00;60484.78;5030201;28;20037;-65
2023/03/05 00:32:21;;;;;;;10.20;3.00;;;;;;;-145.18;100.00;60484.78;5025548;28;20029;-64
2023/03/05 00:34:48;;;;;;;6.77;2.73;;;;;;;-145.18;100.00;60484.78;5024684;28;20056;-65
2023/03/05 00:37:14;;;;;;;10.93;2.63;;;;;;;-145.18;100.00;60484.78;5021970;28;20026;-65
2023/03/05 00:39:40;;;;;;;11.87;3.50;;;;;;;-145.18;100.00;60484.78;5026172;28;20091;-65
2023/03/05 00:42:05;;;;;;;16.90;3.67;;;;;;;-145.18;100.00;60484.78;5026100;28;20025;-65
2023/03/05 00:44:31;;;;;;;11.90;2.50;;;;;;;-145.18;100.00;60484.78;5025464;28;20025;-65
2023/03/05 00:46:56;;;;;;;18.20;2.97;;;;;;;-145.18;100.00;60484.78;5026256;28;20124;-64
2023/03/05 00:49:21;;;;;;;10.67;2.47;;;;;;;-145.18;100.00;60484.78;5027015;28;20029;-65
2023/03/05 00:51:47;;;;;;;9.63;2.60;;;;;;;-145.18;100.00;60484.78;5029964;28;20132;-64
2023/03/05 00:54:15;;;;;;;7.03;2.40;;;;;;;-145.18;100.00;60484.78;5023647;28;20088;-64
2023/03/05 00:56:40;;;;;;;12.13;2.87;;;;;;;-145.18;100.00;60484.78;5021941;28;20481;-65
2023/03/05 00:59:06;;;;;;;6.80;2.53;;;;;;;-145.18;100.00;60484.78;5029028;28;20091;-65
2023/03/05 01:01:31;;;;;;;10.80;2.70;;;;;;;-145.18;100.00;60484.78;5019945;28;20083;-64
2023/03/05 01:03:58;;;;;;;12.70;2.53;;;;;;;-145.18;100.00;60484.78;5026194;28;20022;-64
2023/03/05 01:06:23;;;;;;;6.93;2.30;;;;;;;-145.18;100.00;60484.78;5020535;28;20036;-64
2023/03/05 01:08:49;;;;;;;9.43;2.47;;;;;;;-145.18;100.00;60484.78;5019813;28;20429;-65
2023/03/05 01:11:15;;;;;;;13.30;2.60;;;;;;;-145.18;100.00;60484.78;5023427;28;20091;-64
2023/03/05 01:13:40;;;;;;;9.07;2.60;;;;;;;-145.18;100.00;60484.78;5028846;28;20033;-64
2023/03/05 01:16:06;;;;;;;8.50;2.40;;;;;;;-145.18;100.00;60484.78;5023742;28;20056;-64
2023/03/05 01:18:32;;;;;;;11.17;2.63;;;;;;;-145.18;100.00;60484.78;5024479;28;20037;-65
2023/03/05 01:20:58;;;;;;;11.00;1.80;;;;;;;-145.18;100.00;60484.78;5028167;28;20029;-65
2023/03/05 01:23:23;;;;;;;4.57;1.87;;;;;;;-145.18;100.00;60484.78;5027578;28;20355;-64
2023/03/05 01:25:54;;;;;;;6.97;2.10;;;;;;;-145.18;100.00;60484.78;5027660;28;20052;-64
2023/03/05 01:28:19;;;;;;;10.37;2.70;;;;;;;-145.18;100.00;60484.78;5027976;28;20482;-64
2023/03/05 01:30:44;;;;;;;8.67;2.87;;;;;;;-145.18;100.00;60484.78;5023154;28;20036;-66
2023/03/05 01:33:10;;;;;;;8.47;2.77;;;;;;;-145.18;100.00;60484.78;5026911;28;20677;-66
2023/03/05 01:35:35;;;;;;;10.47;2.67;;;;;;;-145.18;100.00;60484.78;5024929;28;20053;-64
2023/03/05 01:38:00;;;;;;;12.43;3.90;;;;;;;-145.18;100.00;60484.78;5031062;28;20036;-64
2023/03/05 01:40:28;;;;;;;9.13;2.73;;;;;;;-145.18;100.00;60484.78;5027857;28;20056;-64
2023/03/05 01:42:58;;;;;;;9.30;3.07;;;;;;;-145.18;100.00;60484.78;5030358;28;20048;-64
2023/03/05 01:45:24;;;;;;;12.03;2.70;;;;;;;-145.18;100.00;60484.78;5023762;28;20086;-64
2023/03/05 01:47:49;;;;;;;7.27;2.50;;;;;;;-145.18;100.00;60484.78;5026732;28;20031;-64
2023/03/05 01:50:18;;;;;;;9.70;2.90;;;;;;;-145.18;100.00;60484.78;5028967;28;20617;-64
2023/03/05 01:53:13;;;;;;;9.20;2.57;;;;;;;-145.18;100.00;60484.78;5026978;28;20033;-65
2023/03/05 01:55:38;;;;;;;9.97;2.60;;;;;;;-145.18;100.00;60484.78;5015182;28;20041;-64
2023/03/05 01:58:09;;;;;;;12.53;2.70;;;;;;;-145.18;100.00;60484.78;5021070;28;20470;-63
2023/03/05 02:00:38;;;;;;;9.27;2.97;;;;;;;-145.18;100.00;60484.78;5026341;28;20091;-65
2023/03/05 02:03:08;;;;;;;11.63;2.90;;;;;;;-145.18;100.00;60484.78;5036351;23;20107;-86
2023/03/05 02:05:36;;;;;;;10.80;2.70;;;;;;;-145.18;100.00;60484.78;5049454;28;20125;-85
2023/03/05 02:08:06;;;;;;;9.13;2.47;;;;;;;-145.18;100.00;60484.78;5029644;28;20391;-85
2023/03/05 02:10:41;;;;;;;12.00;2.80;;;;;;;-145.18;100.00;60484.78;5053260;28;20499;-86
2023/03/05 02:13:11;;;;;;;12.67;3.93;;;;;;;-145.18;100.00;60484.78;5055455;28;20021;-86
2023/03/05 02:15:37;;;;;;;11.97;2.83;;;;;;;-145.18;100.00;60484.78;5053333;28;20028;-86
2023/03/05 02:18:03;;;;;;;12.27;3.03;;;;;;;-145.18;100.00;60484.78;5047620;28;20077;-86
2023/03/05 02:20:42;;;;;;;11.03;3.00;;;;;;;-145.18;100.00;60484.78;5036460;28;20123;-86
2023/03/05 02:23:07;;;;;;;15.97;3.07;;;;;;;-145.18;100.00;60484.78;5036582;28;20020;-86
2023/03/05 02:25:32;;;;;;;11.07;3.10;;;;;;;-145.18;100.00;60484.78;5052295;28;20025;-86
2023/03/05 02:28:07;;;;;;;12.17;3.70;;;;;;;-145.18;100.00;60484.78;5051604;28;20029;-86
2023/03/05 02:30:34;;;;;;;14.20;3.10;;;;;;;-145.18;100.00;60484.78;5056608;28;20091;-86
2023/03/05 02:33:00;;;;;;;15.30;3.10;;;;;;;-145.18;100.00;60484.78;5051820;28;20059;-86
2023/03/05 02:35:26;;;;;;;12.30;3.30;;;;;;;-145.18;100.00;60484.78;5057367;28;20033;-86
2023/03/05 02:37:51;;;;;;;17.93;3.20;;;;;;;-145.18;100.00;60484.78;5073114;28;20013;-86
2023/03/05 02:40:16;;;;;;;10.10;3.13;;;;;;;-145.18;100.00;60484.78;5053645;28;20024;-86
2023/03/05 02:42:42;;;;;;;15.87;3.23;;;;;;;-145.18;100.00;60484.78;5054923;28;20025;-86
2023/03/05 02:45:09;;;;;;;15.13;4.40;;;;;;;-145.18;100.00;60484.78;5056640;28;20388;-86
2023/03/05 02:47:35;;;;;;;14.37;3.23;;;;;;;-145.18;100.00;60484.78;5054676;28;20104;-86
2023/03/05 02:50:00;;;;;;;10.77;3.20;;;;;;;-145.18;100.00;60484.78;5052486;28;20085;-86
2023/03/05 02:52:27;;;;;;;13.37;3.10;;;;;;;-145.18;100.00;60484.78;5057568;28;20035;-86
2023/03/05 02:54:52;;;;;;;14.40;3.47;;;;;;;-145.18;100.00;60484.78;5054933;28;20419;-86
2023/03/05 02:57:18;;;;;;;16.63;3.53;;;;;;;-145.18;100.00;60484.78;5057078;28;20025;-86
2023/03/05 02:59:44;;;;;;;16.27;3.20;;;;;;;-145.18;100.00;60484.78;5056329;28;20021;-86
2023/03/05 03:02:10;;;;;;;17.83;3.50;;;;;;;-145.18;100.00;60484.78;5060994;28;20025;-86
2023/03/05 03:04:36;;;;;;;15.73;3.47;;;;;;;-145.18;100.00;60484.78;5055298;28;20474;-86
2023/03/05 03:07:01;;;;;;;12.37;3.70;;;;;;;-145.18;100.00;60484.78;5065994;28;20472;-86
2023/03/05 03:09:27;;;;;;;13.20;3.50;;;;;;;-145.18;100.00;60484.78;5051608;28;20033;-86
2023/03/05 03:11:52;;;;;;;9.57;3.30;;;;;;;-145.18;100.00;60484.78;5056359;28;20388;-86
2023/03/05 03:14:19;;;;;;;17.90;3.70;;;;;;;-145.18;100.00;60484.78;5060743;28;20032;-86
2023/03/05 03:16:44;;;;;;;11.90;3.53;;;;;;;-145.18;100.00;60484.78;5049213;28;20025;-86
2023/03/05 03:19:10;;;;;;;15.13;3.40;;;;;;;-145.18;100.00;60484.78;5049675;28;20043;-86
2023/03/05 03:21:36;;;;;;;13.47;3.43;;;;;;;-145.18;100.00;60484.78;5060431;28;20021;-86
2023/03/05 03:24:01;;;;;;;11.23;3.27;;;;;;;-145.18;100.00;60484.78;5050072;28;20028;-87
2023/03/05 03:26:27;;;;;;;12.17;3.17;;;;;;;-145.18;100.00;60484.78;5067233;28;20131;-87
2023/03/05 03:28:52;;;;;;;15.70;3.40;;;;;;;-145.18;100.00;60484.78;5057085;28;20040;-86
2023/03/05 03:31:18;;;;;;;11.13;3.90;;;;;;;-145.18;100.00;60484.78;5060202;28;20017;-86
2023/03/05 03:33:43;;;;;;;14.33;3.10;;;;;;;-145.18;100.00;60484.78;5054147;28;20021;-87
2023/03/05 03:36:09;;;;;;;9.80;3.30;;;;;;;-145.18;100.00;60484.78;5040197;28;20021;-86
2023/03/05 03:38:35;;;;;;;13.23;3.13;;;;;;;-145.18;100.00;60484.78;5051779;28;20260;-86
2023/03/05 03:41:00;;;;;;;12.33;4.20;;;;;;;-145.18;100.00;60484.78;5055428;28;20353;-86
2023/03/05 03:43:25;;;;;;;10.27;3.30;;;;;;;-145.18;100.00;60484.78;5056778;28;20373;-86
2023/03/05 03:45:51;;;;;;;11.20;2.93;;;;;;;-145.18;100.00;60484.78;5039629;28;20017;-85
2023/03/05 03:48:16;;;;;;;15.30;3.20;;;;;;;-145.18;100.00;60484.78;5053330;28;20048;-84
2023/03/05 03:50:42;;;;;;;13.43;3.30;;;;;;;-145.18;100.00;60484.78;5058467;28;20025;-84
2023/03/05 03:53:11;;;;;;;12.07;3.03;;;;;;;-145.18;100.00;60484.78;5057540;28;20027;-84
2023/03/05 03:55:37;;;;;;;12.87;3.00;;;;;;;-145.18;100.00;60484.78;5062045;28;20094;-85
2023/03/05 03:58:03;;;;;;;9.80;2.90;;;;;;;-145.18;100.00;60484.78;5059051;28;20465;-85
2023/03/05 04:00:28;;;;;;;8.30;2.90;;;;;;;-145.18;100.00;60484.78;5059361;28;20471;-84
2023/03/05 04:02:53;;;;;;;8.37;2.93;;;;;;;-145.18;100.00;60484.78;5053503;28;20037;-85
2023/03/05 04:05:19;;;;;;;11.43;2.97;;;;;;;-145.18;100.00;60484.78;5055749;28;20094;-84
2023/03/05 04:07:44;;;;;;;6.50;2.50;;;;;;;-145.18;100.00;60484.78;5062224;28;20048;-85
2023/03/05 04:10:11;;;;;;;8.93;2.70;;;;;;;-145.18;100.00;60484.78;5054723;28;20033;-85
2023/03/05 04:12:36;;;;;;;6.20;2.90;;;;;;;-145.18;100.00;60484.78;5054954;28;20107;-85
2023/03/05 04:15:02;;;;;;;9.10;2.83;;;;;;;-145.18;100.00;60484.78;5059082;28;20099;-85
2023/03/05 04:17:27;;;;;;;6.93;2.63;;;;;;;-145.18;100.00;60484.78;5049069;28;20025;-85
2023/03/05 04:19:53;;;;;;;8.93;2.50;;;;;;;-145.18;100.00;60484.78;5052482;28;20530;-85
2023/03/05 04:22:18;;;;;;;16.97;2.83;;;;;;;-145.18;100.00;60484.78;5054464;28;20021;-85
2023/03/05 04:24:43;;;;;;;10.20;2.60;;;;;;;-145.18;100.00;60484.78;5057341;28;20103;-85
2023/03/05 04:27:10;;;;;;;7.40;2.50;;;;;;;-145.18;100.00;60484.78;5054633;28;20427;-84
2023/03/05 04:29:35;;;;;;;10.93;3.03;;;;;;;-145.18;100.00;60484.78;5054155;28;20060;-85
2023/03/05 04:32:01;;;;;;;5.97;2.07;;;;;;;-145.18;100.00;60484.78;5058044;28;20035;-84
2023/03/05 04:34:26;;;;;;;12.77;2.80;;;;;;;-145.18;100.00;60484.78;5050721;28;20033;-85
2023/03/05 04:36:52;;;;;;;13.50;2.73;;;;;;;-145.18;100.00;60484.78;5059339;28;20028;-85
2023/03/05 04:39:19;;;;;;;6.87;2.20;;;;;;;-145.18;100.00;60484.78;5054280;28;20032;-85
2023/03/05 04:41:45;;;;;;;7.57;2.10;;;;;;;-145.18;100.00;60484.78;5052330;28;20170;-85
2023/03/05 04:44:11;;;;;;;8.63;2.30;;;;;;;-145.18;100.00;60484.78;5053823;28;20021;-85
2023/03/05 04:46:36;;;;;;;10.23;2.63;;;;;;;-145.18;100.00;60484.78;5053459;28;20365;-85
2023/03/05 04:49:02;;;;;;;7.90;2.37;;;;;;;-145.18;100.00;60484.78;5052884;28;20025;-85
2023/03/05 04:51:27;;;;;;;17.73;3.87;;;;;;;-145.18;100.00;60484.78;5052462;28;20025;-85
2023/03/05 04:53:53;;;;;;;12.40;2.77;;;;;;;-145.18;100.00;60484.78;5054521;28;20025;-85
2023/03/05 04:56:18;;;;;;;7.60;2.20;;;;;;;-145.18;100.00;60484.78;5037270;28;20475;-85
2023/03/05 04:58:43;;;;;;;9.93;2.80;;;;;;;-145.18;100.00;60484.78;5052980;28;20029;-85
2023/03/05 05:01:09;;;;;;;12.90;2.30;;;;;;;-145.18;100.00;60484.78;5042421;28;20049;-83
2023/03/05 05:03:35;;;;;;;9.97;2.17;;;;;;;-145.18;100.00;60484.78;5053492;28;20025;-82
2023/03/05 05:06:00;;;;;;;10.03;2.40;;;;;;;-145.18;100.00;60484.78;5052990;28;20016;-83
2023/03/05 05:08:27;;;;;;;10.23;2.60;;;;;;;-145.18;100.00;60484.78;5053937;28;20027;-83
2023/03/05 05:11:01;;;;;;;10.47;2.77;;;;;;;-145.18;100.00;60484.78;5051383;28;20056;-83
2023/03/05 05:13:26;;;;;;;8.67;2.90;;;;;;;-145.18;100.00;60484.78;5053647;28;20025;-83
2023/03/05 05:15:52;;;;;;;10.57;2.90;;;;;;;-145.18;100.00;60484.78;5045449;28;20583;-83
2023/03/05 05:18:17;;;;;;;7.17;2.03;;;;;;;-145.18;100.00;60484.78;5054097;28;20109;-83
2023/03/05 05:20:43;;;;;;;10.23;2.87;;;;;;;-145.18;100.00;60484.78;5051561;28;20020;-83
2023/03/05 05:23:08;;;;;;;9.27;2.50;;;;;;;-145.18;100.00;60484.78;5053177;28;20096;-83
2023/03/05 05:25:34;;;;;;;8.93;2.67;;;;;;;-145.18;100.00;60484.78;5052642;28;20108;-83
2023/03/05 05:27:59;;;;;;;12.63;2.60;;;;;;;-145.18;100.00;60484.78;5053677;28;20027;-84
2023/03/05 05:30:24;;;;;;;8.23;2.43;;;;;;;-145.18;100.00;60484.78;5053437;28;20488;-84
2023/03/05 05:32:50;;;;;;;8.43;1.73;;;;;;;-145.18;100.00;60484.78;5047134;28;20024;-84
2023/03/05 05:35:15;;;;;;;7.23;2.10;;;;;;;-145.18;100.00;60484.78;5055537;28;20484;-84
2023/03/05 05:37:41;;;;;;;8.13;2.10;;;;;;;-145.18;100.00;60484.78;5053051;28;20025;-84
2023/03/05 05:40:07;;;;;;;5.83;2.37;;;;;;;-145.18;100.00;60484.78;5052334;28;20040;-84
2023/03/05 05:42:33;;;;;;;8.57;2.17;;;;;;;-145.18;100.00;60484.78;5052821;28;20037;-84
2023/03/05 05:44:58;;;;;;;7.53;2.20;;;;;;;-145.18;100.00;60484.78;5053685;28;20491;-84
2023/03/05 05:47:24;;;;;;;6.27;1.90;;;;;;;-145.18;100.00;60484.78;5051777;28;20024;-84
2023/03/05 05:49:49;;;;;;;6.57;2.03;;;;;;;-145.18;100.00;60484.78;5041978;28;20033;-84
2023/03/05 05:52:15;;;;;;;6.43;2.03;;;;;;;-145.18;100.00;60484.78;5052651;28;20111;-84
2023/03/05 05:54:40;;;;;;;7.00;2.27;;;;;;;-145.18;100.00;60484.78;5052704;28;20025;-84
2023/03/05 05:57:07;;;;;;;8.67;2.40;;;;;;;-145.18;100.00;60484.78;5042691;28;20086;-84
2023/03/05 05:59:32;;;;;;;6.20;2.30;;;;;;;-145.18;100.00;60484.78;5053692;28;20068;-84
2023/03/05 06:01:58;;;;;;;7.17;2.40;;;;;;;-145.18;100.00;60484.78;5050142;28;20048;-84
2023/03/05 06:04:23;;;;;;;9.10;2.70;;;;;;;-145.18;100.00;60484.78;5051696;28;20238;-84
2023/03/05 06:06:49;;;;;;;6.37;2.70;;;;;;;-145.18;100.00;60484.78;5050254;28;20491;-84
2023/03/05 06:09:14;;;;;;;9.63;2.70;;;;;;;-145.18;100.00;60484.78;5052882;28;20033;-84
2023/03/05 06:11:39;;;;;;;7.77;2.53;;;;;;;-145.18;100.00;60484.78;5050594;28;20033;-84
2023/03/05 06:14:06;;;;;;;7.90;3.00;;;;;;;-145.18;100.00;60484.78;5052503;28;20033;-84
2023/03/05 06:16:32;;;;;;;7.47;2.67;;;;;;;-145.18;100.00;60484.78;5051941;28;20025;-84
2023/03/05 06:18:57;;;;;;;9.33;3.00;;;;;;;-145.18;100.00;60484.78;5052865;28;20384;-84
2023/03/05 06:21:23;;;;;;;6.40;2.97;;;;;;;-145.18;100.00;60484.78;5053590;28;20039;-84
2023/03/05 06:23:49;;;;;;;7.00;2.57;;;;;;;-145.18;100.00;60484.78;5055613;28;20052;-85
2023/03/05 06:26:18;;;;;;;9.73;2.90;;;;;;;-145.18;100.00;60484.78;5054901;28;20039;-85
2023/03/05 06:28:43;;;;;;;10.50;3.07;;;;;;;-145.18;100.00;60484.78;5061952;28;20114;-85
2023/03/05 06:31:11;;;;;;;10.77;2.53;;;;;;;-145.18;100.00;60484.78;5061790;28;20029;-85
2023/03/05 06:33:38;;;;;;;10.50;3.33;;;;;;;-145.18;100.00;60484.78;5056283;28;20041;-84
2023/03/05 06:36:05;;;;;;;7.20;3.10;;;;;;;-145.18;100.00;60484.78;5049859;28;20107;-85
2023/03/05 06:38:31;;;;;;;6.83;2.60;;;;;;;-145.18;100.00;60484.78;5055963;28;20056;-84
2023/03/05 06:41:10;;;;;;;13.07;3.40;;;;;;;-145.18;100.00;60484.78;5056149;28;20469;-85
2023/03/05 06:43:38;;;;;;;8.37;2.80;;;;;;;-145.18;100.00;60484.78;5053832;28;20067;-85
2023/03/05 06:46:05;;;;;;;7.40;2.97;;;;;;;-145.18;100.00;60484.78;5059524;28;20086;-85
2023/03/05 06:48:31;;;;;;;9.67;3.23;;;;;;;-145.18;100.00;60484.78;5059976;28;20055;-84
2023/03/05 06:50:56;;;;;;;14.43;3.07;;;;;;;-145.18;100.00;60484.78;5058578;28;20036;-84
2023/03/05 06:53:25;;;;;;;10.10;2.97;;;;;;;-145.18;100.00;60484.78;5056260;28;20111;-85
2023/03/05 06:55:51;;;;;;;9.47;3.20;;;;;;;-145.18;100.00;60484.78;5058314;28;20057;-85
2023/03/05 06:58:17;;;;;;;12.97;3.07;;;;;;;-145.18;100.00;60484.78;5054932;28;20040;-85
2023/03/05 07:00:43;;;;;;;8.60;3.00;;;;;;;-145.18;100.00;60484.78;5058031;28;20029;-84
2023/03/05 07:03:09;;;;;;;6.73;2.77;;;;;;;-145.18;100.00;60484.78;5052351;28;20033;-85
2023/03/05 07:05:38;;;;;;;10.27;3.60;;;;;;;-145.18;100.00;60484.78;5057470;28;20599;-85
2023/03/05 07:08:03;;;;;;;7.30;2.77;;;;;;;-145.18;100.00;60484.78;5038758;28;20036;-85
2023/03/05 07:10:29;;;;;;;7.57;2.67;;;;;;;-145.18;100.00;60484.78;5056065;28;20044;-85
2023/03/05 07:12:55;;;;;;;10.00;2.60;;;;;;;-145.18;100.00;60484.78;5058101;28;20043;-84
2023/03/05 07:15:20;;;;;;;9.60;2.93;;;;;;;-145.18;100.00;60484.78;5056471;28;20033;-85
2023/03/05 07:17:46;;;;;;;6.40;2.60;;;;;;;-145.18;100.00;60484.78;5051499;28;20261;-85
2023/03/05 07:20:12;;;;;;;7.30;2.90;;;;;;;-145.18;100.00;60484.78;5055022;28;20036;-84
2023/03/05 07:22:37;;;;;;;9.00;2.50;;;;;;;-145.18;100.00;60484.78;5053949;28;20036;-85
2023/03/05 07:25:03;;;;;;;5.17;2.30;;;;;;;-145.18;100.00;60484.78;5055201;28;20029;-85
2023/03/05 07:27:29;;;;;;;9.63;3.10;;;;;;;-145.18;100.00;60484.78;5043370;28;20021;-85
2023/03/05 07:29:54;;;;;;;12.07;3.17;;;;;;;-145.18;100.00;60484.78;5054179;28;20086;-85
2023/03/05 07:32:20;;;;;;;7.53;2.60;;;;;;;-145.18;100.00;60484.78;5037476;28;20466;-85
2023/03/05 07:34:45;;;;;;;9.37;2.50;;;;;;;-145.18;100.00;60484.78;5058345;28;20033;-85
2023/03/05 07:37:12;;;;;;;6.23;2.40;;;;;;;-145.18;100.00;60484.78;5053082;28;20480;-85
2023/03/05 07:39:37;;;;;;;8.63;2.30;;;;;;;-145.18;100.00;60484.78;5057259;28;20463;-85
2023/03/05 07:42:02;;;;;;;5.17;2.10;;;;;;;-145.18;100.00;60484.78;5055519;28;20025;-85
2023/03/05 07:44:28;;;;;;;8.07;2.67;;;;;;;-145.18;100.00;60484.78;5058169;28;20029;-85
2023/03/05 07:46:53;;;;;;;5.80;2.40;;;;;;;-145.18;100.00;60484.78;5060629;28;20036;-85
2023/03/05 07:49:19;;;;;;;6.20;2.13;;;;;;;-145.18;100.00;60484.78;5056569;28;20033;-84
2023/03/05 07:51:44;;;;;;;5.33;1.90;;;;;;;-145.18;100.00;60484.78;5058444;28;20436;-85
2023/03/05 07:54:09;;;;;;;8.23;2.00;;;;;;;-145.18;100.00;60484.78;5043064;28;20021;-85
2023/03/05 07:56:35;;;;;;;6.83;2.00;;;;;;;-145.18;100.00;60484.78;5058513;28;20033;-85
2023/03/05 07:59:07;;;;;;;8.70;2.33;;;;;;;-145.18;100.00;60484.78;5055158;28;20031;-85
2023/03/05 08:01:33;;;;;;;7.67;2.00;;;;;;;-145.18;100.00;60484.78;5046528;28;20030;-85
2023/03/05 08:03:59;;;;;;;5.40;2.10;;;;;;;-145.18;100.00;60484.78;5037726;28;20049;-86
2023/03/05 08:06:24;;;;;;;11.57;2.33;;;;;;;-145.18;100.00;60484.78;5040983;28;20063;-86
2023/03/05 08:08:50;;;;;;;7.80;1.90;;;;;;;-145.18;100.00;60484.78;5056942;28;20121;-86
2023/03/05 08:11:16;;;;;;;5.17;1.47;;;;;;;-145.18;100.00;60484.78;5057904;28;20029;-86
2023/03/05 08:13:45;;;;;;;5.57;1.80;;;;;;;-145.18;100.00;60484.78;5053364;28;20120;-86
2023/03/05 08:16:14;;;;;;;12.00;2.00;;;;;;;-145.18;100.00;60484.78;5057005;28;20078;-86
2023/03/05 08:18:40;;;;;;;6.23;1.80;;;;;;;-145.18;100.00;60484.78;5056423;28;20051;-86
2023/03/05 08:21:06;;;;;;;5.23;1.40;;;;;;;-145.18;100.00;60484.78;5036011;28;20028;-85
2023/03/05 08:23:33;;;;;;;5.07;1.63;;;;;;;-145.18;100.00;60484.78;5068626;28;20036;-85
2023/03/05 08:25:59;;;;;;;8.73;1.70;;;;;;;-145.18;100.00;60484.78;5059049;28;20358;-86
2023/03/05 08:28:24;;;;;;;6.27;1.70;;;;;;;-145.18;100.00;60484.78;5057149;28;20028;-86
2023/03/05 08:30:50;;;;;;;6.90;1.47;;;;;;;-145.18;100.00;60484.78;5059176;28;20036;-86
2023/03/05 08:33:18;;;;;;;5.37;1.80;;;;;;;-145.18;100.00;60484.78;5058290;28;20047;-86
2023/03/05 08:35:44;;;;;;;3.43;1.40;;;;;;;-145.18;100.00;60484.78;5058348;28;20403;-86
2023/03/05 08:38:09;;;;;;;6.47;1.63;;;;;;;-145.18;100.00;60484.78;5058058;28;20043;-86
2023/03/05 08:40:35;;;;;;;7.07;1.50;;;;;;;-145.18;100.00;60484.78;5058068;28;20063;-86
2023/03/05 08:43:00;;;;;;;7.27;1.60;;;;;;;-145.18;100.00;60484.78;5054538;28;20032;-87
2023/03/05 08:45:26;;;;;;;3.57;1.43;;;;;;;-145.18;100.00;60484.78;5052557;28;20029;-86
2023/03/05 08:47:57;;;;;;;6.43;1.47;;;;;;;-145.18;100.00;60484.78;5047565;28;20066;-86
2023/03/05 08:50:22;;;;;;;6.33;1.70;;;;;;;-145.18;100.00;60484.78;5068567;28;20032;-87
2023/03/05 08:52:49;;;;;;;6.93;1.17;;;;;;;-145.18;100.00;60484.78;5062705;28;20384;-84
2023/03/05 08:55:15;;;;;;;5.57;1.60;;;;;;;-145.18;100.00;60484.78;5071638;28;20025;-86
2023/03/05 08:57:40;;;;;;;6.23;1.97;;;;;;;-145.18;100.00;60484.78;5061881;28;20120;-85
2023/03/05 09:00:09;;;;;;;4.33;1.50;;;;;;;-145.18;100.00;60484.78;5061357;28;20060;-86
2023/03/05 09:02:34;;;;;;;5.33;1.40;;;;;;;-145.18;100.00;60484.78;5061681;28;20039;-85
2023/03/05 09:05:00;;;;;;;4.87;1.47;;;;;;;-145.18;100.00;60484.78;5058791;28;20053;-85
2023/03/05 09:07:26;;;;;;;7.50;1.70;;;;;;;-145.18;100.00;60484.78;5062975;28;20024;-86
2023/03/05 09:09:52;;;;;;;3.03;1.27;;;;;;;-145.18;100.00;60484.78;5068738;28;20025;-86
2023/03/05 09:12:17;;;;;;;7.47;1.57;;;;;;;-145.18;100.00;60484.78;5064864;28;20017;-86
2023/03/05 09:14:43;;;;;;;3.70;1.33;;;;;;;-145.18;100.00;60484.78;5060674;28;20015;-86
2023/03/05 09:17:08;;;;;;;4.77;1.10;;;;;;;-145.18;100.00;60484.78;5059462;28;20005;-88
2023/03/05 09:19:34;;;;;;;7.07;1.20;;;;;;;-145.18;100.00;60484.78;5057098;28;20059;-85
2023/03/05 09:22:08;;;;;;;4.93;1.37;;;;;;;-145.18;100.00;60484.78;5055816;28;20063;-85
2023/03/05 09:24:37;;;;;;;3.37;1.20;;;;;;;-145.18;100.00;60484.78;5057206;28;20320;-86
2023/03/05 09:27:02;;;;;;;4.40;1.20;;;;;;;-145.18;100.00;60484.78;5068108;28;20500;-86
2023/03/05 09:29:29;;;;;;;2.60;1.00;;;;;;;-145.18;100.00;60484.78;5049486;28;20044;-86
2023/03/05 09:31:55;;;;;;;7.60;1.37;;;;;;;-145.18;100.00;60484.78;5048962;28;20060;-85
2023/03/05 09:34:21;;;;;;;5.40;1.23;;;;;;;-145.18;100.00;60484.78;5050173;28;20507;-86
2023/03/05 09:36:46;;;;;;;5.63;1.50;;;;;;;-145.18;100.00;60484.78;5049817;28;20029;-86
2023/03/05 09:39:11;;;;;;;4.00;1.10;;;;;;;-145.18;100.00;60484.78;5047207;28;20107;-86
2023/03/05 09:42:04;;;;;;;4.77;1.20;;;;;;;-145.18;100.00;60484.78;5050445;28;20025;-87
2023/03/05 09:44:54;;;;;;;4.83;1.00;;;;;;;-145.18;100.00;60484.78;5049020;28;20029;-86
2023/03/05 09:47:37;;;;;;;7.07;1.03;;;;;;;-145.18;100.00;60484.78;5048128;28;20028;-86
2023/03/05 09:50:30;;;;;;;3.93;0.90;;;;;;;-145.18;100.00;60484.78;5041521;28;20025;-86
2023/03/05 09:53:01;;;;;;;3.73;1.00;;;;;;;-145.18;100.00;60484.78;5044290;28;20060;-87
2023/03/05 09:55:41;;;;;;;4.82;1.40;;;;;;;-145.18;100.00;60484.78;5030310;28;20069;-86
2023/03/05 09:58:29;;;;;;;8.67;1.63;;;;;;;-145.18;100.00;60484.78;5047906;28;20033;-86
2023/03/05 10:01:00;;;;;;;2.77;0.90;;;;;;;-145.18;100.00;60484.78;5049552;28;20043;-86
2023/03/05 10:03:30;;;;;;;5.22;1.00;;;;;;;-145.18;100.00;60484.78;5040366;28;20575;-86
2023/03/05 10:06:17;;;;;;;7.77;1.63;;;;;;;-145.18;100.00;60484.78;5047994;28;20509;-86
2023/03/05 10:08:53;;;;;;;4.73;0.80;;;;;;;-145.18;100.00;60484.78;5043054;28;20031;-86
2023/03/05 10:11:58;;;;;;;8.10;1.30;;;;;;;-145.18;100.00;60484.78;5046560;28;20194;-86
2023/03/05 10:14:28;;;;;;;3.00;0.90;;;;;;;-145.18;100.00;60484.78;5039765;28;20326;-85
2023/03/05 10:17:31;;;;;;;6.23;0.93;;;;;;;-145.18;100.00;60484.78;5044875;28;20390;-85
2023/03/05 10:20:26;;;;;;;4.57;0.90;;;;;;;-145.18;100.00;60484.78;5047912;28;20120;-84
2023/03/05 10:23:06;;;;;;;7.07;1.10;;;;;;;-145.18;100.00;60484.78;5047263;28;20032;-84
2023/03/05 10:25:53;;;;;;;5.73;1.00;;;;;;;-145.18;100.00;60484.78;5041186;28;20037;-85
2023/03/05 10:28:46;;;;;;;5.77;1.10;;;;;;;-145.18;100.00;60484.78;5045011;28;20025;-85
2023/03/05 10:31:17;;;;;;;5.17;1.20;;;;;;;-145.18;100.00;60484.78;5045737;28;20055;-84
2023/03/05 10:33:42;;;;;;;7.50;1.10;;;;;;;-145.18;100.00;60484.78;5055225;28;20493;-85
2023/03/05 10:36:10;;;;;;;4.63;1.20;;;;;;;-145.18;100.00;60484.78;5046384;28;20159;-84
2023/03/05 10:38:44;;;;;;;6.07;1.10;;;;;;;-145.18;100.00;60484.78;5050837;28;20519;-84
2023/03/05 10:41:26;;;;;;;7.53;1.10;;;;;;;-145.18;100.00;60484.78;5055229;28;20031;-84
2023/03/05 10:44:02;;;;;;;6.83;1.00;;;;;;;-145.18;100.00;60484.78;5063627;28;20029;-86
2023/03/05 10:46:34;;;;;;;2.50;1.10;;;;;;;-145.18;100.00;60484.78;5055711;28;20017;-85
2023/03/05 10:49:23;;;;;;;3.05;1.08;;;;;;;-145.18;100.00;60484.78;5054549;28;20033;-85
2023/03/05 10:51:55;;;;;;;4.67;1.30;;;;;;;-145.18;100.00;60484.78;5052046;28;20075;-85
2023/03/05 10:54:28;;;;;;;5.83;1.07;;;;;;;-145.18;100.00;60484.78;5049744;28;20024;-85
2023/03/05 10:57:12;;;;;;;6.43;1.40;;;;;;;-145.18;100.00;60484.78;5050745;28;20029;-85
2023/03/05 11:00:04;;;;;;;8.37;1.93;;;;;;;-145.18;100.00;60484.78;5050976;28;20104;-85
2023/03/05 11:02:29;;;;;;;3.25;1.17;;;;;;;-145.18;100.00;60484.78;5051155;28;20049;-85
2023/03/05 11:04:55;;;;;;;4.67;1.30;;;;;;;-145.18;100.00;60484.78;5060766;28;20040;-85
2023/03/05 11:07:21;;;;;;;6.23;1.00;;;;;;;-145.18;100.00;60484.78;5056942;28;20021;-85
2023/03/05 11:09:58;;;;;;;5.47;1.20;;;;;;;-145.18;100.00;60484.78;5060466;28;20037;-85